LEST/SCQ METAR and TAF weather

Enter ICAO airport designator
Station Type Date Time Source
LEST METAR 2022/07/03 14:00 UTC NOAA

LEST 031400Z 04012KT 340V080 9999 SCT017 19/15 Q1020 NOSIG


Station Type Date Time Source
LEST Decoded METAR 2022/07/03 14:00 UTC NOAA

Santiago / Labacolla, Spain (LEST) 42-54N 008-26W 367M
Jul 03, 2022 - 10:00 AM EDT / 2022.07.03 1400 UTC
Wind: from the NE (040 degrees) at 14 MPH (12 KT) (direction variable):0
Visibility: greater than 7 mile(s):0
Sky conditions: partly cloudy
Temperature: 66 F (19 C)
Dew Point: 59 F (15 C)
Relative Humidity: 77%
Pressure (altimeter): 30.12 in. Hg (1020 hPa)
ob: LEST 031400Z 04012KT 340V080 9999 SCT017 19/15 Q1020 NOSIG
cycle: 14

Station Type Date Time Source
LEST TAF 2022/07/03 12:27 UTC NOAA

TAF LEST 031100Z 0312/0412 04009KT 9999 FEW015 SCT020 TX22/0315Z TN15/0406Z PROB30
TEMPO 0312/0314 TSRA FEW040CB PROB40
TEMPO 0312/0315 05015G25KT PROB30
TEMPO 0322/0406 BKN010

Example: see airport list